createdAt,value
2022-12-04T00:01:06.513Z,100272.95
2022-12-04T00:04:10.069Z,100290.30
2022-12-04T00:07:12.911Z,100289.09
2022-12-04T00:10:15.882Z,100291.19
2022-12-04T00:13:19.509Z,100293.98
2022-12-04T00:16:28.188Z,100295.86
2022-12-04T00:19:37.924Z,100295.32
2022-12-04T00:22:40.906Z,100294.45
2022-12-04T00:25:48.660Z,100287.39
2022-12-04T00:28:57.788Z,100291.55
2022-12-04T00:32:00.832Z,100294.65
2022-12-04T00:35:03.859Z,100292.52
2022-12-04T00:38:06.910Z,100292.66
2022-12-04T00:41:15.755Z,100285.02
2022-12-04T00:44:21.562Z,100278.93
2022-12-04T00:47:24.542Z,100275.83
2022-12-04T00:50:27.469Z,100278.89
2022-12-04T00:53:30.271Z,100277.00
2022-12-04T00:56:33.311Z,100280.12
2022-12-04T00:59:38.080Z,100280.98
2022-12-04T01:02:41.112Z,100281.48
2022-12-04T01:05:45.961Z,100282.02
2022-12-04T01:08:50.101Z,100283.01
2022-12-04T01:11:53.068Z,100280.09
2022-12-04T01:14:56.062Z,100281.27
2022-12-04T01:17:59.192Z,100280.35
2022-12-04T01:21:02.080Z,100278.79
2022-12-04T01:24:05.899Z,100274.44
2022-12-04T01:27:09.045Z,100274.29
2022-12-04T01:30:12.595Z,100273.24
2022-12-04T01:33:15.621Z,100265.08
2022-12-04T01:36:25.833Z,100264.05
2022-12-04T01:39:29.094Z,100264.52
2022-12-04T01:42:32.028Z,100267.34
2022-12-04T01:46:02.670Z,100269.24
2022-12-04T01:49:21.536Z,100269.23
2022-12-04T01:52:26.674Z,100267.86
2022-12-04T01:55:30.958Z,100263.84
2022-12-04T01:58:39.681Z,100263.50
2022-12-04T02:01:49.462Z,100269.06
2022-12-04T02:04:53.541Z,100259.48
2022-12-04T02:08:01.614Z,100258.26
2022-12-04T02:11:47.102Z,100262.08
2022-12-04T02:15:04.520Z,100261.41
2022-12-04T02:18:16.867Z,100258.98
2022-12-04T02:21:36.409Z,100256.68
2022-12-04T02:25:08.879Z,100253.34
2022-12-04T02:28:23.098Z,100253.50
2022-12-04T02:31:37.294Z,100249.03
2022-12-04T02:35:10.913Z,100243.81
2022-12-04T02:38:27.341Z,100242.39
2022-12-04T02:41:42.233Z,100243.76
2022-12-04T02:44:49.772Z,100235.64
2022-12-04T02:47:54.682Z,100239.27
2022-12-04T02:51:01.764Z,100236.00
2022-12-04T02:54:36.268Z,100237.20
2022-12-04T02:57:45.431Z,100240.27
2022-12-04T03:00:50.676Z,100242.52
2022-12-04T03:03:56.568Z,100235.23
2022-12-04T03:07:05.663Z,100235.40
2022-12-04T03:10:23.806Z,100232.09
2022-12-04T03:13:36.398Z,100227.38
2022-12-04T03:16:41.490Z,100220.59
2022-12-04T03:19:51.655Z,100219.76
2022-12-04T03:23:03.324Z,100216.13
2022-12-04T03:26:09.308Z,100211.77
2022-12-04T03:29:19.300Z,100215.43
2022-12-04T03:32:35.052Z,100211.68
2022-12-04T03:36:01.446Z,100210.69
2022-12-04T03:39:25.233Z,100206.52
2022-12-04T03:42:38.896Z,100199.91
2022-12-04T03:45:57.573Z,100196.23
2022-12-04T03:49:19.100Z,100193.31
2022-12-04T03:52:37.018Z,100199.69
2022-12-04T03:55:49.837Z,100199.14
2022-12-04T03:59:00.874Z,100200.20
2022-12-04T04:02:05.538Z,100190.86
2022-12-04T04:05:11.363Z,100196.81
2022-12-04T04:08:26.383Z,100199.94
2022-12-04T04:11:34.424Z,100196.27
2022-12-04T04:15:08.680Z,100195.19
2022-12-04T04:18:30.500Z,100198.87
2022-12-04T04:21:55.220Z,100196.95
2022-12-04T04:25:04.301Z,100204.41
2022-12-04T04:28:32.356Z,100203.52
2022-12-04T04:31:42.036Z,100202.48
2022-12-04T04:34:52.890Z,100206.95
2022-12-04T04:38:14.488Z,100208.16
2022-12-04T04:41:33.432Z,100209.67
2022-12-04T04:44:52.987Z,100212.91
2022-12-04T04:48:03.271Z,100209.08
2022-12-04T04:51:06.855Z,100212.55
2022-12-04T04:54:13.615Z,100216.56
2022-12-04T04:57:28.119Z,100212.02
2022-12-04T05:00:31.169Z,100219.98
2022-12-04T05:03:34.450Z,100217.02
2022-12-04T05:06:37.344Z,100217.15
2022-12-04T05:09:41.523Z,100214.52
2022-12-04T05:12:44.450Z,100211.05
2022-12-04T05:16:19.733Z,100208.75
2022-12-04T05:19:41.218Z,100207.02
2022-12-04T05:22:44.093Z,100211.16
2022-12-04T05:25:46.991Z,100201.64
2022-12-04T05:28:49.871Z,100200.28
2022-12-04T05:31:52.660Z,100197.13
2022-12-04T05:34:56.747Z,100196.90
2022-12-04T05:37:59.564Z,100189.79
2022-12-04T05:41:05.293Z,100188.97
2022-12-04T05:44:08.155Z,100184.98
2022-12-04T05:47:27.627Z,100178.16
2022-12-04T05:50:30.566Z,100181.58
2022-12-04T05:53:33.581Z,100179.90
2022-12-04T05:56:37.438Z,100178.72
2022-12-04T05:59:44.555Z,100177.15
2022-12-04T06:02:47.687Z,100177.80
2022-12-04T06:06:21.090Z,100176.72
2022-12-04T06:09:24.558Z,100178.45
2022-12-04T06:12:27.486Z,100184.89
2022-12-04T06:15:30.365Z,100182.13
2022-12-04T06:18:33.148Z,100184.86
2022-12-04T06:21:38.354Z,100182.56
2022-12-04T06:24:41.366Z,100174.45
2022-12-04T06:27:44.536Z,100188.04
2022-12-04T06:30:47.424Z,100189.58
2022-12-04T06:33:50.273Z,100192.54
2022-12-04T06:36:53.104Z,100194.77
2022-12-04T06:39:56.223Z,100202.21
2022-12-04T06:42:59.471Z,100204.83
2022-12-04T06:46:08.392Z,100208.11
2022-12-04T06:49:11.312Z,100204.41
2022-12-04T06:52:14.107Z,100205.54
2022-12-04T06:55:17.000Z,100203.63
2022-12-04T06:58:19.780Z,100210.05
2022-12-04T07:01:25.728Z,100211.13
2022-12-04T07:04:28.664Z,100214.81
2022-12-04T07:07:31.605Z,100209.73
2022-12-04T07:10:36.667Z,100202.95
2022-12-04T07:13:39.648Z,100197.21
2022-12-04T07:16:43.091Z,100196.16
2022-12-04T07:19:46.186Z,100198.36
2022-12-04T07:22:49.048Z,100200.21
2022-12-04T07:25:52.157Z,100200.77
2022-12-04T07:28:56.226Z,100193.01
2022-12-04T07:31:59.130Z,100190.77
2022-12-04T07:35:02.651Z,100186.04
2022-12-04T07:38:05.501Z,100187.35
2022-12-04T07:41:10.927Z,100188.23
2022-12-04T07:44:13.794Z,100188.09
2022-12-04T07:47:16.672Z,100190.71
2022-12-04T07:50:19.609Z,100188.93
2022-12-04T07:53:22.402Z,100187.48
2022-12-04T07:56:25.547Z,100184.52
2022-12-04T07:59:28.433Z,100185.20
2022-12-04T08:02:34.979Z,100191.42
2022-12-04T08:05:39.877Z,100195.02
2022-12-04T08:08:42.956Z,100191.86
2022-12-04T08:11:46.067Z,100193.23
2022-12-04T08:14:50.288Z,100193.94
2022-12-04T08:17:53.182Z,100190.61
2022-12-04T08:21:06.899Z,100193.38
2022-12-04T08:24:09.841Z,100199.73
2022-12-04T08:27:12.870Z,100197.08
2022-12-04T08:30:16.489Z,100194.48
2022-12-04T08:33:19.494Z,100195.70
2022-12-04T08:36:23.067Z,100203.12
2022-12-04T08:39:27.015Z,100194.84
2022-12-04T08:42:29.797Z,100200.47
2022-12-04T08:45:35.285Z,100196.79
2022-12-04T08:48:45.669Z,100205.36
2022-12-04T08:51:48.725Z,100206.68
2022-12-04T08:54:51.645Z,100201.05
2022-12-04T08:57:55.056Z,100205.84
2022-12-04T09:01:07.074Z,100197.67
2022-12-04T09:04:10.094Z,100199.56
2022-12-04T09:07:31.568Z,100205.56
2022-12-04T09:10:44.774Z,100205.36
2022-12-04T09:13:49.030Z,100209.61
2022-12-04T09:16:53.759Z,100203.87
2022-12-04T09:20:16.721Z,100206.90
2022-12-04T09:23:20.041Z,100206.53
2022-12-04T09:26:32.710Z,100206.84
2022-12-04T09:29:35.716Z,100206.82
2022-12-04T09:32:39.318Z,100205.26
2022-12-04T09:35:42.217Z,100204.62
2022-12-04T09:38:47.988Z,100201.91
2022-12-04T09:42:03.064Z,100184.85
2022-12-04T09:45:13.185Z,100194.13
2022-12-04T09:48:19.565Z,100189.73
2022-12-04T09:51:24.025Z,100191.58
2022-12-04T09:54:39.270Z,100185.39
2022-12-04T09:57:51.251Z,100184.23
2022-12-04T10:00:55.767Z,100178.55
2022-12-04T10:04:05.642Z,100176.83
2022-12-04T10:07:25.763Z,100175.57
2022-12-04T10:10:43.186Z,100170.77
2022-12-04T10:14:31.048Z,100165.68
2022-12-04T10:17:43.866Z,100158.06
2022-12-04T10:20:55.814Z,100145.15
2022-12-04T10:24:23.872Z,100141.06
2022-12-04T10:27:32.832Z,100156.17
2022-12-04T10:30:38.895Z,100161.18
2022-12-04T10:33:51.407Z,100159.56
2022-12-04T10:37:07.374Z,100143.81
2022-12-04T10:40:21.897Z,100142.13
2022-12-04T10:43:32.238Z,100154.67
2022-12-04T10:46:36.046Z,100154.98
2022-12-04T10:49:40.252Z,100154.88
2022-12-04T10:52:43.700Z,100152.17
2022-12-04T10:55:47.177Z,100154.28
2022-12-04T10:58:58.238Z,100156.33
2022-12-04T11:02:20.383Z,100155.27
2022-12-04T11:05:30.337Z,100151.03
2022-12-04T11:08:42.000Z,100148.65
2022-12-04T11:11:45.139Z,100149.78
2022-12-04T11:14:48.148Z,100151.74
2022-12-04T11:17:53.012Z,100155.48
2022-12-04T11:21:04.932Z,100155.23
2022-12-04T11:24:21.223Z,100144.84
2022-12-04T11:27:32.181Z,100138.98
2022-12-04T11:30:37.572Z,100135.73
2022-12-04T11:33:47.048Z,100137.08
2022-12-04T11:36:55.253Z,100133.75
2022-12-04T11:39:59.372Z,100130.67
2022-12-04T11:43:07.720Z,100131.81
2022-12-04T11:46:21.929Z,100129.56
2022-12-04T11:49:27.959Z,100123.92
2022-12-04T11:52:44.349Z,100121.33
2022-12-04T11:55:59.600Z,100117.60
2022-12-04T11:59:02.389Z,100116.63
2022-12-04T12:02:34.300Z,100109.29
2022-12-04T12:06:26.220Z,100107.10
2022-12-04T12:09:57.295Z,100111.36
2022-12-04T12:13:12.515Z,100109.20
2022-12-04T12:16:35.259Z,100110.22
2022-12-04T12:20:16.122Z,100111.55
2022-12-04T12:23:40.981Z,100112.14
2022-12-04T12:26:56.123Z,100108.61
2022-12-04T12:30:07.340Z,100111.04
2022-12-04T12:33:18.687Z,100108.46
2022-12-04T12:36:26.729Z,100106.55
2022-12-04T12:39:40.820Z,100092.40
2022-12-04T12:43:12.574Z,100097.10
2022-12-04T12:46:22.928Z,100100.64
2022-12-04T12:49:50.182Z,100094.87
2022-12-04T12:52:59.149Z,100084.46
2022-12-04T12:56:04.308Z,100085.50
2022-12-04T12:59:18.312Z,100077.27
2022-12-04T13:02:33.963Z,100081.44
2022-12-04T13:05:44.911Z,100082.37
2022-12-04T13:09:19.389Z,100083.41
2022-12-04T13:12:24.189Z,100083.63
2022-12-04T13:15:54.691Z,100086.45
2022-12-04T13:19:12.523Z,100078.85
2022-12-04T13:22:34.898Z,100079.27
2022-12-04T13:26:06.995Z,100084.13
2022-12-04T13:29:41.194Z,100080.89
2022-12-04T13:32:53.197Z,100076.35
2022-12-04T13:36:18.368Z,100073.48
2022-12-04T13:39:48.216Z,100066.48
2022-12-04T13:43:21.721Z,100068.22
2022-12-04T13:46:41.311Z,100071.46
2022-12-04T13:49:48.724Z,100067.91
2022-12-04T13:52:55.566Z,100060.77
2022-12-04T13:56:04.434Z,100069.98
2022-12-04T13:59:32.675Z,100068.13
2022-12-04T14:02:38.146Z,100075.33
2022-12-04T14:05:43.624Z,100080.77
2022-12-04T14:08:46.917Z,100078.46
2022-12-04T14:11:56.988Z,100075.70
2022-12-04T14:15:07.780Z,100077.95
2022-12-04T14:18:14.274Z,100078.30
2022-12-04T14:21:17.496Z,100077.63
2022-12-04T14:24:38.304Z,100069.42
2022-12-04T14:27:41.539Z,100064.74
2022-12-04T14:30:45.530Z,100066.52
2022-12-04T14:33:52.595Z,100065.10
2022-12-04T14:36:59.528Z,100067.13
2022-12-04T14:40:07.704Z,100072.80
2022-12-04T14:43:20.051Z,100069.48
2022-12-04T14:46:52.129Z,100072.91
2022-12-04T14:50:15.418Z,100071.97
2022-12-04T14:53:43.117Z,100079.31
2022-12-04T14:57:23.792Z,100078.42
2022-12-04T15:00:26.979Z,100077.65
2022-12-04T15:03:34.622Z,100077.58
2022-12-04T15:06:41.960Z,100078.98
2022-12-04T15:10:12.032Z,100060.31
2022-12-04T15:13:27.753Z,100073.41
2022-12-04T15:16:30.774Z,100073.19
2022-12-04T15:19:33.729Z,100068.97
2022-12-04T15:22:36.890Z,100077.17
2022-12-04T15:25:50.899Z,100080.05
2022-12-04T15:29:03.371Z,100069.74
2022-12-04T15:32:12.074Z,100076.95
2022-12-04T15:35:29.786Z,100075.55
2022-12-04T15:38:33.660Z,100075.38
2022-12-04T15:41:42.900Z,100076.61
2022-12-04T15:44:52.644Z,100074.02
2022-12-04T15:47:55.961Z,100076.06
2022-12-04T15:51:03.536Z,100071.02
2022-12-04T15:54:26.647Z,100069.69
2022-12-04T15:57:34.597Z,100076.17
2022-12-04T16:00:40.253Z,100079.92
2022-12-04T16:03:43.244Z,100082.70
2022-12-04T16:06:48.494Z,100081.31
2022-12-04T16:10:02.848Z,100074.81
2022-12-04T16:13:06.750Z,100075.48
2022-12-04T16:16:17.573Z,100071.09
2022-12-04T16:19:26.273Z,100077.27
2022-12-04T16:22:30.192Z,100074.92
2022-12-04T16:25:33.256Z,100075.89
2022-12-04T16:28:36.223Z,100065.95
2022-12-04T16:31:39.257Z,100067.77
2022-12-04T16:34:42.242Z,100072.45
2022-12-04T16:37:46.709Z,100071.26
2022-12-04T16:40:49.566Z,100067.39
2022-12-04T16:43:56.850Z,100062.58
2022-12-04T16:46:59.753Z,100062.71
2022-12-04T16:50:02.790Z,100061.06
2022-12-04T16:53:05.825Z,100056.37
2022-12-04T16:56:09.498Z,100064.09
2022-12-04T16:59:13.709Z,100065.33
2022-12-04T17:02:24.058Z,100064.88
2022-12-04T17:05:29.381Z,100062.91
2022-12-04T17:08:33.170Z,100062.69
2022-12-04T19:10:13.257Z,100051.05
2022-12-04T19:17:02.289Z,100057.11
2022-12-04T19:17:27.000Z,100057.46
2022-12-04T19:20:32.188Z,100059.88
2022-12-04T19:23:40.790Z,100054.73
2022-12-04T19:26:46.402Z,100050.29
2022-12-04T19:29:50.803Z,100055.27
2022-12-04T19:32:56.041Z,100053.58
2022-12-04T19:36:05.377Z,100057.45
2022-12-04T19:39:11.039Z,100048.16
2022-12-04T19:42:16.895Z,100051.70
2022-12-04T19:45:21.370Z,100052.73
2022-12-04T19:48:27.846Z,100038.13
2022-12-04T19:56:30.279Z,100056.14
2022-12-04T19:59:36.953Z,100055.10
2022-12-04T20:02:40.796Z,100050.17
2022-12-04T20:05:43.619Z,100043.21
2022-12-04T20:08:47.234Z,100043.79
2022-12-04T20:16:43.507Z,100053.02
2022-12-04T20:19:46.523Z,100060.79
2022-12-04T20:22:51.451Z,100060.14
2022-12-04T20:25:54.912Z,100054.41
2022-12-04T20:28:59.940Z,100049.50
2022-12-04T20:32:02.859Z,100039.43
2022-12-04T20:35:07.304Z,100034.57
2022-12-04T20:38:10.243Z,100034.79
2022-12-04T20:41:16.118Z,100033.92
2022-12-04T20:49:21.744Z,100037.88
2022-12-04T20:52:25.343Z,100042.13
2022-12-04T20:55:57.510Z,100039.28
2022-12-04T20:59:04.985Z,100032.21
2022-12-04T21:02:07.863Z,100026.65
2022-12-04T21:05:10.811Z,100023.22
2022-12-04T21:08:14.860Z,100020.02
2022-12-04T21:11:17.794Z,100021.42
2022-12-04T21:14:43.605Z,100020.81
2022-12-04T21:17:46.531Z,100023.23
2022-12-04T21:20:49.392Z,100017.33
2022-12-04T21:23:52.536Z,100022.59
2022-12-04T21:31:50.919Z,100027.13
2022-12-04T21:34:55.882Z,100020.17
2022-12-04T21:38:00.648Z,100024.89
2022-12-04T21:41:09.230Z,100026.21
2022-12-04T21:44:16.627Z,100026.25
2022-12-04T21:57:20.900Z,100019.07
2022-12-04T22:00:23.872Z,100021.21
2022-12-04T22:03:26.731Z,100014.31
2022-12-04T22:10:53.089Z,100008.93
2022-12-04T22:13:56.193Z,100013.85
2022-12-04T22:17:00.208Z,100016.15
2022-12-04T22:20:03.781Z,100002.98
2022-12-04T22:33:09.028Z,100003.79
2022-12-04T22:36:16.117Z,100006.27
2022-12-04T22:40:10.621Z,100017.11
2022-12-04T22:43:13.441Z,100025.43
2022-12-04T22:46:16.987Z,100020.80
2022-12-04T22:49:20.087Z,100021.36
2022-12-04T22:52:23.219Z,100023.11
2022-12-04T22:55:26.053Z,100014.68
2022-12-04T22:58:28.920Z,100013.16
2022-12-04T23:01:34.443Z,100011.27
2022-12-04T23:04:37.508Z,100001.48
2022-12-04T23:07:40.716Z,100002.60
2022-12-04T23:10:43.726Z,100009.10
2022-12-04T23:13:55.484Z,100008.95
2022-12-04T23:16:58.557Z,100007.41
2022-12-04T23:20:01.381Z,100002.23
2022-12-04T23:23:04.249Z,100006.05
2022-12-04T23:26:16.622Z,100003.67
2022-12-04T23:29:50.938Z,100004.09
2022-12-04T23:32:45.220Z,100018.56
2022-12-04T23:35:57.194Z,100016.98
2022-12-04T23:39:00.275Z,100017.91
2022-12-04T23:42:03.512Z,100017.63
2022-12-04T23:45:08.034Z,100012.00
2022-12-04T23:48:11.414Z,100004.83
2022-12-04T23:51:17.686Z,100001.23
2022-12-04T23:54:20.858Z,99996.41
2022-12-04T23:57:23.941Z,100000.20
